sensor_id;sensor_type;location;lat;lon;timestamp;temperature;humidity
7000;DHT22;3540;53.242;10.408;2022-09-17T00:01:17;12.00;99.90
7000;DHT22;3540;53.242;10.408;2022-09-17T00:03:44;12.00;99.90
7000;DHT22;3540;53.242;10.408;2022-09-17T00:06:13;12.00;99.90
7000;DHT22;3540;53.242;10.408;2022-09-17T00:08:40;12.00;99.90
7000;DHT22;3540;53.242;10.408;2022-09-17T00:11:12;12.00;99.90
7000;DHT22;3540;53.242;10.408;2022-09-17T00:13:39;12.00;99.90
7000;DHT22;3540;53.242;10.408;2022-09-17T00:16:05;12.00;99.90
7000;DHT22;3540;53.242;10.408;2022-09-17T00:18:31;12.00;99.90
7000;DHT22;3540;53.242;10.408;2022-09-17T00:20:56;12.00;99.90
7000;DHT22;3540;53.242;10.408;2022-09-17T00:23:22;12.00;99.90
7000;DHT22;3540;53.242;10.408;2022-09-17T00:25:48;11.90;99.90
7000;DHT22;3540;53.242;10.408;2022-09-17T00:28:14;11.90;99.90
7000;DHT22;3540;53.242;10.408;2022-09-17T00:30:44;11.90;99.90
7000;DHT22;3540;53.242;10.408;2022-09-17T00:33:12;11.80;99.90
7000;DHT22;3540;53.242;10.408;2022-09-17T00:35:38;11.80;99.90
7000;DHT22;3540;53.242;10.408;2022-09-17T00:38:04;11.80;99.90
7000;DHT22;3540;53.242;10.408;2022-09-17T00:40:29;11.80;99.90
7000;DHT22;3540;53.242;10.408;2022-09-17T00:42:55;11.80;99.90
7000;DHT22;3540;53.242;10.408;2022-09-17T00:45:20;11.80;99.90
7000;DHT22;3540;53.242;10.408;2022-09-17T00:47:59;11.90;99.90
7000;DHT22;3540;53.242;10.408;2022-09-17T00:50:35;11.90;99.90
7000;DHT22;3540;53.242;10.408;2022-09-17T00:53:12;11.80;99.90
7000;DHT22;3540;53.242;10.408;2022-09-17T00:55:39;11.90;99.90
7000;DHT22;3540;53.242;10.408;2022-09-17T00:58:07;11.90;99.90
7000;DHT22;3540;53.242;10.408;2022-09-17T01:00:34;11.90;99.90
7000;DHT22;3540;53.242;10.408;2022-09-17T01:03:00;11.90;99.90
7000;DHT22;3540;53.242;10.408;2022-09-17T01:21:50;11.70;99.90
7000;DHT22;3540;53.242;10.408;2022-09-17T01:38:39;11.60;99.90
7000;DHT22;3540;53.242;10.408;2022-09-17T01:41:16;11.50;99.90
7000;DHT22;3540;53.242;10.408;2022-09-17T01:44:08;11.50;99.90
7000;DHT22;3540;53.242;10.408;2022-09-17T01:47:19;11.40;99.90
7000;DHT22;3540;53.242;10.408;2022-09-17T01:49:42;11.40;99.90
7000;DHT22;3540;53.242;10.408;2022-09-17T01:52:10;11.40;99.90
7000;DHT22;3540;53.242;10.408;2022-09-17T01:54:42;11.40;99.90
7000;DHT22;3540;53.242;10.408;2022-09-17T01:57:25;11.30;99.90
7000;DHT22;3540;53.242;10.408;2022-09-17T02:00:01;11.30;99.90
7000;DHT22;3540;53.242;10.408;2022-09-17T02:02:45;11.30;99.90
7000;DHT22;3540;53.242;10.408;2022-09-17T02:07:53;11.20;99.90
7000;DHT22;3540;53.242;10.408;2022-09-17T02:10:24;11.20;99.90
7000;DHT22;3540;53.242;10.408;2022-09-17T02:13:21;11.20;99.90
7000;DHT22;3540;53.242;10.408;2022-09-17T02:16:00;11.10;99.90
7000;DHT22;3540;53.242;10.408;2022-09-17T02:18:35;11.10;99.90
7000;DHT22;3540;53.242;10.408;2022-09-17T02:21:14;11.10;99.90
7000;DHT22;3540;53.242;10.408;2022-09-17T02:24:10;11.10;99.90
7000;DHT22;3540;53.242;10.408;2022-09-17T02:26:41;11.00;99.90
7000;DHT22;3540;53.242;10.408;2022-09-17T02:29:17;11.00;99.90
7000;DHT22;3540;53.242;10.408;2022-09-17T02:31:43;11.00;99.90
7000;DHT22;3540;53.242;10.408;2022-09-17T02:34:10;11.00;99.90
7000;DHT22;3540;53.242;10.408;2022-09-17T02:36:36;11.00;99.90
7000;DHT22;3540;53.242;10.408;2022-09-17T02:39:03;11.00;99.90
7000;DHT22;3540;53.242;10.408;2022-09-17T02:50:17;11.00;99.90
7000;DHT22;3540;53.242;10.408;2022-09-17T03:02:01;11.10;99.90
7000;DHT22;3540;53.242;10.408;2022-09-17T03:04:28;11.10;99.90
7000;DHT22;3540;53.242;10.408;2022-09-17T03:06:54;11.10;99.90
7000;DHT22;3540;53.242;10.408;2022-09-17T03:09:21;11.10;99.90
7000;DHT22;3540;53.242;10.408;2022-09-17T03:11:46;11.10;99.90
7000;DHT22;3540;53.242;10.408;2022-09-17T03:14:12;11.10;99.90
7000;DHT22;3540;53.242;10.408;2022-09-17T03:16:38;11.10;99.90
7000;DHT22;3540;53.242;10.408;2022-09-17T03:19:03;11.20;99.90
7000;DHT22;3540;53.242;10.408;2022-09-17T03:21:29;11.20;99.90
7000;DHT22;3540;53.242;10.408;2022-09-17T03:23:55;11.20;99.90
7000;DHT22;3540;53.242;10.408;2022-09-17T03:26:22;11.10;99.90
7000;DHT22;3540;53.242;10.408;2022-09-17T03:28:47;11.10;99.90
7000;DHT22;3540;53.242;10.408;2022-09-17T03:31:13;11.10;99.90
7000;DHT22;3540;53.242;10.408;2022-09-17T03:33:38;11.10;99.90
7000;DHT22;3540;53.242;10.408;2022-09-17T03:36:04;11.10;99.90
7000;DHT22;3540;53.242;10.408;2022-09-17T03:38:30;11.00;99.90
7000;DHT22;3540;53.242;10.408;2022-09-17T03:41:00;11.00;99.90
7000;DHT22;3540;53.242;10.408;2022-09-17T03:43:26;11.10;99.90
7000;DHT22;3540;53.242;10.408;2022-09-17T03:45:52;11.00;99.90
7000;DHT22;3540;53.242;10.408;2022-09-17T03:48:17;11.00;99.90
7000;DHT22;3540;53.242;10.408;2022-09-17T03:50:43;11.00;99.90
7000;DHT22;3540;53.242;10.408;2022-09-17T03:53:09;11.10;99.90
7000;DHT22;3540;53.242;10.408;2022-09-17T03:55:37;11.00;99.90
7000;DHT22;3540;53.242;10.408;2022-09-17T03:58:03;11.00;99.90
7000;DHT22;3540;53.242;10.408;2022-09-17T04:00:29;11.00;99.90
7000;DHT22;3540;53.242;10.408;2022-09-17T04:02:54;11.00;99.90
7000;DHT22;3540;53.242;10.408;2022-09-17T04:05:20;11.00;99.90
7000;DHT22;3540;53.242;10.408;2022-09-17T04:07:45;11.00;99.90
7000;DHT22;3540;53.242;10.408;2022-09-17T04:10:11;11.00;99.90
7000;DHT22;3540;53.242;10.408;2022-09-17T04:12:37;11.00;99.90
7000;DHT22;3540;53.242;10.408;2022-09-17T04:15:03;11.00;99.90
7000;DHT22;3540;53.242;10.408;2022-09-17T04:17:29;11.00;99.90
7000;DHT22;3540;53.242;10.408;2022-09-17T04:19:55;11.00;99.90
7000;DHT22;3540;53.242;10.408;2022-09-17T04:22:20;11.00;99.90
7000;DHT22;3540;53.242;10.408;2022-09-17T04:24:46;11.00;99.90
7000;DHT22;3540;53.242;10.408;2022-09-17T04:27:11;11.00;99.90
7000;DHT22;3540;53.242;10.408;2022-09-17T04:29:37;11.00;99.90
7000;DHT22;3540;53.242;10.408;2022-09-17T04:32:02;11.00;99.90
7000;DHT22;3540;53.242;10.408;2022-09-17T04:34:28;11.00;99.90
7000;DHT22;3540;53.242;10.408;2022-09-17T04:36:54;11.00;99.90
7000;DHT22;3540;53.242;10.408;2022-09-17T04:39:19;11.00;99.90
7000;DHT22;3540;53.242;10.408;2022-09-17T04:41:45;11.00;99.90
7000;DHT22;3540;53.242;10.408;2022-09-17T04:44:11;10.90;99.90
7000;DHT22;3540;53.242;10.408;2022-09-17T04:46:37;10.90;99.90
7000;DHT22;3540;53.242;10.408;2022-09-17T04:49:02;10.90;99.90
7000;DHT22;3540;53.242;10.408;2022-09-17T04:51:28;10.90;99.90
7000;DHT22;3540;53.242;10.408;2022-09-17T04:53:53;10.90;99.90
7000;DHT22;3540;53.242;10.408;2022-09-17T04:56:19;10.90;99.90
7000;DHT22;3540;53.242;10.408;2022-09-17T04:58:45;10.90;99.90
7000;DHT22;3540;53.242;10.408;2022-09-17T05:01:10;10.90;99.90
7000;DHT22;3540;53.242;10.408;2022-09-17T05:03:38;10.90;99.90
7000;DHT22;3540;53.242;10.408;2022-09-17T05:06:04;10.90;99.90
7000;DHT22;3540;53.242;10.408;2022-09-17T05:08:29;10.90;99.90
7000;DHT22;3540;53.242;10.408;2022-09-17T05:10:55;10.90;99.90
7000;DHT22;3540;53.242;10.408;2022-09-17T05:13:21;10.90;99.90
7000;DHT22;3540;53.242;10.408;2022-09-17T05:15:46;10.80;99.90
7000;DHT22;3540;53.242;10.408;2022-09-17T05:18:13;10.80;99.90
7000;DHT22;3540;53.242;10.408;2022-09-17T05:20:39;10.80;99.90
7000;DHT22;3540;53.242;10.408;2022-09-17T05:23:04;10.70;99.90
7000;DHT22;3540;53.242;10.408;2022-09-17T05:25:30;10.80;99.90
7000;DHT22;3540;53.242;10.408;2022-09-17T05:27:56;10.80;99.90
7000;DHT22;3540;53.242;10.408;2022-09-17T05:30:22;10.70;99.90
7000;DHT22;3540;53.242;10.408;2022-09-17T05:32:54;10.70;99.90
7000;DHT22;3540;53.242;10.408;2022-09-17T05:35:22;10.70;99.90
7000;DHT22;3540;53.242;10.408;2022-09-17T05:37:48;10.70;99.90
7000;DHT22;3540;53.242;10.408;2022-09-17T05:40:13;10.70;99.90
7000;DHT22;3540;53.242;10.408;2022-09-17T05:42:39;10.70;99.90
7000;DHT22;3540;53.242;10.408;2022-09-17T05:45:05;10.70;99.90
7000;DHT22;3540;53.242;10.408;2022-09-17T05:47:31;10.70;99.90
7000;DHT22;3540;53.242;10.408;2022-09-17T05:49:56;10.70;99.90
7000;DHT22;3540;53.242;10.408;2022-09-17T05:52:26;10.70;99.90
7000;DHT22;3540;53.242;10.408;2022-09-17T05:54:52;10.70;99.90
7000;DHT22;3540;53.242;10.408;2022-09-17T05:57:17;10.60;99.90
7000;DHT22;3540;53.242;10.408;2022-09-17T05:59:44;10.70;99.90
7000;DHT22;3540;53.242;10.408;2022-09-17T06:02:13;10.60;99.90
7000;DHT22;3540;53.242;10.408;2022-09-17T06:04:38;10.60;99.90
7000;DHT22;3540;53.242;10.408;2022-09-17T06:07:05;10.60;99.90
7000;DHT22;3540;53.242;10.408;2022-09-17T06:09:36;10.60;99.90
7000;DHT22;3540;53.242;10.408;2022-09-17T06:12:03;10.60;99.90
7000;DHT22;3540;53.242;10.408;2022-09-17T06:14:29;10.60;99.90
7000;DHT22;3540;53.242;10.408;2022-09-17T06:16:55;10.60;99.90
7000;DHT22;3540;53.242;10.408;2022-09-17T06:19:21;10.60;99.90
7000;DHT22;3540;53.242;10.408;2022-09-17T06:21:47;10.70;99.90
7000;DHT22;3540;53.242;10.408;2022-09-17T06:24:15;10.70;99.90
7000;DHT22;3540;53.242;10.408;2022-09-17T06:26:41;10.70;99.90
7000;DHT22;3540;53.242;10.408;2022-09-17T06:29:07;10.70;99.90
7000;DHT22;3540;53.242;10.408;2022-09-17T06:31:32;10.60;99.90
7000;DHT22;3540;53.242;10.408;2022-09-17T06:33:58;10.70;99.90
7000;DHT22;3540;53.242;10.408;2022-09-17T06:36:24;10.70;99.90
7000;DHT22;3540;53.242;10.408;2022-09-17T06:38:49;10.70;99.90
7000;DHT22;3540;53.242;10.408;2022-09-17T06:41:15;10.70;99.90
7000;DHT22;3540;53.242;10.408;2022-09-17T06:43:41;10.70;99.90
7000;DHT22;3540;53.242;10.408;2022-09-17T06:46:08;10.70;99.90
7000;DHT22;3540;53.242;10.408;2022-09-17T06:48:35;10.70;99.90
7000;DHT22;3540;53.242;10.408;2022-09-17T06:51:07;10.80;99.90
7000;DHT22;3540;53.242;10.408;2022-09-17T06:53:33;10.80;99.90
7000;DHT22;3540;53.242;10.408;2022-09-17T06:56:01;10.80;99.90
7000;DHT22;3540;53.242;10.408;2022-09-17T06:58:28;10.80;99.90
7000;DHT22;3540;53.242;10.408;2022-09-17T07:01:00;10.80;99.90
7000;DHT22;3540;53.242;10.408;2022-09-17T07:03:27;10.80;99.90
7000;DHT22;3540;53.242;10.408;2022-09-17T07:05:53;10.80;99.90
7000;DHT22;3540;53.242;10.408;2022-09-17T07:08:19;10.80;99.90
7000;DHT22;3540;53.242;10.408;2022-09-17T07:10:44;10.80;99.90
7000;DHT22;3540;53.242;10.408;2022-09-17T07:13:10;10.80;99.90
7000;DHT22;3540;53.242;10.408;2022-09-17T07:15:35;11.00;99.90
7000;DHT22;3540;53.242;10.408;2022-09-17T07:18:08;11.00;99.90
7000;DHT22;3540;53.242;10.408;2022-09-17T07:20:34;11.10;99.90
7000;DHT22;3540;53.242;10.408;2022-09-17T07:23:00;11.20;99.90
7000;DHT22;3540;53.242;10.408;2022-09-17T07:25:26;11.20;99.90
7000;DHT22;3540;53.242;10.408;2022-09-17T07:27:52;11.20;99.90
7000;DHT22;3540;53.242;10.408;2022-09-17T07:30:19;11.20;99.90
7000;DHT22;3540;53.242;10.408;2022-09-17T07:32:45;11.30;99.90
7000;DHT22;3540;53.242;10.408;2022-09-17T07:35:11;11.40;99.90
7000;DHT22;3540;53.242;10.408;2022-09-17T07:37:37;11.50;99.90
7000;DHT22;3540;53.242;10.408;2022-09-17T07:40:03;11.60;99.90
7000;DHT22;3540;53.242;10.408;2022-09-17T07:42:33;11.70;99.90
7000;DHT22;3540;53.242;10.408;2022-09-17T07:44:59;11.70;99.90
7000;DHT22;3540;53.242;10.408;2022-09-17T07:47:25;11.80;99.90
7000;DHT22;3540;53.242;10.408;2022-09-17T07:49:50;11.90;99.90
7000;DHT22;3540;53.242;10.408;2022-09-17T07:52:16;11.90;99.90
7000;DHT22;3540;53.242;10.408;2022-09-17T07:54:41;12.00;99.90
7000;DHT22;3540;53.242;10.408;2022-09-17T07:57:07;12.10;99.90
7000;DHT22;3540;53.242;10.408;2022-09-17T07:59:32;12.20;99.90
7000;DHT22;3540;53.242;10.408;2022-09-17T08:01:58;12.30;99.90
7000;DHT22;3540;53.242;10.408;2022-09-17T08:04:24;12.40;99.90
7000;DHT22;3540;53.242;10.408;2022-09-17T08:06:50;12.40;99.90
7000;DHT22;3540;53.242;10.408;2022-09-17T08:09:16;12.40;99.90
7000;DHT22;3540;53.242;10.408;2022-09-17T08:11:43;12.50;99.90
7000;DHT22;3540;53.242;10.408;2022-09-17T08:14:10;12.70;99.90
7000;DHT22;3540;53.242;10.408;2022-09-17T08:16:37;12.80;99.90
7000;DHT22;3540;53.242;10.408;2022-09-17T08:19:02;12.50;99.90
7000;DHT22;3540;53.242;10.408;2022-09-17T08:21:28;12.40;99.90
7000;DHT22;3540;53.242;10.408;2022-09-17T08:23:53;12.40;99.90
7000;DHT22;3540;53.242;10.408;2022-09-17T08:26:20;12.20;99.90
7000;DHT22;3540;53.242;10.408;2022-09-17T08:28:52;12.20;99.90
7000;DHT22;3540;53.242;10.408;2022-09-17T08:31:22;12.20;99.90
7000;DHT22;3540;53.242;10.408;2022-09-17T08:33:48;12.40;99.90
7000;DHT22;3540;53.242;10.408;2022-09-17T08:36:16;12.50;99.90
7000;DHT22;3540;53.242;10.408;2022-09-17T08:38:42;12.60;99.90
7000;DHT22;3540;53.242;10.408;2022-09-17T08:41:15;12.60;99.90
7000;DHT22;3540;53.242;10.408;2022-09-17T08:46:56;12.80;99.90
7000;DHT22;3540;53.242;10.408;2022-09-17T08:55:06;12.90;99.90
7000;DHT22;3540;53.242;10.408;2022-09-17T09:00:22;12.80;99.90
7000;DHT22;3540;53.242;10.408;2022-09-17T09:05:46;13.50;99.90
7000;DHT22;3540;53.242;10.408;2022-09-17T09:10:59;13.50;99.90
7000;DHT22;3540;53.242;10.408;2022-09-17T09:13:30;13.00;99.90
7000;DHT22;3540;53.242;10.408;2022-09-17T09:16:01;12.60;99.90
7000;DHT22;3540;53.242;10.408;2022-09-17T09:18:34;12.30;99.90
7000;DHT22;3540;53.242;10.408;2022-09-17T09:23:38;12.20;99.90
7000;DHT22;3540;53.242;10.408;2022-09-17T09:26:31;12.50;99.90
7000;DHT22;3540;53.242;10.408;2022-09-17T09:34:18;12.70;99.90
7000;DHT22;3540;53.242;10.408;2022-09-17T09:36:44;12.80;99.90
7000;DHT22;3540;53.242;10.408;2022-09-17T09:39:24;12.90;99.90
7000;DHT22;3540;53.242;10.408;2022-09-17T09:41:57;12.80;99.90
7000;DHT22;3540;53.242;10.408;2022-09-17T09:44:24;13.00;99.90
7000;DHT22;3540;53.242;10.408;2022-09-17T10:00:46;13.70;99.90
7000;DHT22;3540;53.242;10.408;2022-09-17T10:03:27;13.70;99.90
7000;DHT22;3540;53.242;10.408;2022-09-17T10:06:07;13.70;99.90
7000;DHT22;3540;53.242;10.408;2022-09-17T10:08:36;13.50;99.90
7000;DHT22;3540;53.242;10.408;2022-09-17T10:13:39;13.80;99.90
7000;DHT22;3540;53.242;10.408;2022-09-17T10:16:26;14.10;99.90
7000;DHT22;3540;53.242;10.408;2022-09-17T10:23:56;14.10;99.90
7000;DHT22;3540;53.242;10.408;2022-09-17T10:26:28;14.00;99.90
7000;DHT22;3540;53.242;10.408;2022-09-17T10:28:57;14.00;99.90
7000;DHT22;3540;53.242;10.408;2022-09-17T10:31:23;14.00;99.90
7000;DHT22;3540;53.242;10.408;2022-09-17T10:36:44;13.50;99.90
7000;DHT22;3540;53.242;10.408;2022-09-17T10:42:19;13.20;99.90
7000;DHT22;3540;53.242;10.408;2022-09-17T10:44:57;13.30;99.90
7000;DHT22;3540;53.242;10.408;2022-09-17T10:47:35;13.50;99.90
7000;DHT22;3540;53.242;10.408;2022-09-17T10:50:06;13.60;99.90
7000;DHT22;3540;53.242;10.408;2022-09-17T10:52:37;13.40;99.90
7000;DHT22;3540;53.242;10.408;2022-09-17T10:55:26;13.20;99.90
7000;DHT22;3540;53.242;10.408;2022-09-17T11:00:47;13.30;99.90
7000;DHT22;3540;53.242;10.408;2022-09-17T11:09:03;13.60;99.90
7000;DHT22;3540;53.242;10.408;2022-09-17T11:14:34;13.30;99.90
7000;DHT22;3540;53.242;10.408;2022-09-17T11:20:06;13.40;99.90
7000;DHT22;3540;53.242;10.408;2022-09-17T11:40:34;13.30;99.90
7000;DHT22;3540;53.242;10.408;2022-09-17T11:45:19;12.90;99.90
7000;DHT22;3540;53.242;10.408;2022-09-17T11:47:57;12.70;99.90
7000;DHT22;3540;53.242;10.408;2022-09-17T11:53:33;12.00;99.90
7000;DHT22;3540;53.242;10.408;2022-09-17T12:01:15;12.10;99.90
7000;DHT22;3540;53.242;10.408;2022-09-17T12:03:52;12.20;99.90
7000;DHT22;3540;53.242;10.408;2022-09-17T12:06:37;12.30;99.90
7000;DHT22;3540;53.242;10.408;2022-09-17T12:09:18;12.40;99.90
7000;DHT22;3540;53.242;10.408;2022-09-17T12:11:51;12.40;99.90
7000;DHT22;3540;53.242;10.408;2022-09-17T12:14:28;12.50;99.90
7000;DHT22;3540;53.242;10.408;2022-09-17T12:16:59;12.40;99.90
7000;DHT22;3540;53.242;10.408;2022-09-17T12:19:41;12.30;99.90
7000;DHT22;3540;53.242;10.408;2022-09-17T12:22:13;12.40;99.90
7000;DHT22;3540;53.242;10.408;2022-09-17T12:24:42;12.40;99.90
7000;DHT22;3540;53.242;10.408;2022-09-17T12:27:37;12.40;99.90
7000;DHT22;3540;53.242;10.408;2022-09-17T12:30:12;12.40;99.90
7000;DHT22;3540;53.242;10.408;2022-09-17T12:36:06;12.60;99.90
7000;DHT22;3540;53.242;10.408;2022-09-17T12:52:28;12.30;99.90
7000;DHT22;3540;53.242;10.408;2022-09-17T12:55:17;12.20;99.90
7000;DHT22;3540;53.242;10.408;2022-09-17T12:58:03;12.00;99.90
7000;DHT22;3540;53.242;10.408;2022-09-17T13:00:39;11.90;99.90
7000;DHT22;3540;53.242;10.408;2022-09-17T13:03:23;11.80;99.90
7000;DHT22;3540;53.242;10.408;2022-09-17T13:09:02;11.80;99.90
7000;DHT22;3540;53.242;10.408;2022-09-17T13:11:45;11.70;99.90
7000;DHT22;3540;53.242;10.408;2022-09-17T13:14:47;11.70;99.90
7000;DHT22;3540;53.242;10.408;2022-09-17T13:17:09;11.60;99.90
7000;DHT22;3540;53.242;10.408;2022-09-17T13:19:49;11.60;99.90
7000;DHT22;3540;53.242;10.408;2022-09-17T13:22:20;11.60;99.90
7000;DHT22;3540;53.242;10.408;2022-09-17T13:25:01;11.70;99.90
7000;DHT22;3540;53.242;10.408;2022-09-17T13:27:28;11.80;99.90
7000;DHT22;3540;53.242;10.408;2022-09-17T13:37:55;11.70;99.90
7000;DHT22;3540;53.242;10.408;2022-09-17T13:40:33;11.80;99.90
7000;DHT22;3540;53.242;10.408;2022-09-17T13:43:14;12.00;99.90
7000;DHT22;3540;53.242;10.408;2022-09-17T13:46:16;12.20;99.90
7000;DHT22;3540;53.242;10.408;2022-09-17T13:48:48;12.50;99.90
7000;DHT22;3540;53.242;10.408;2022-09-17T13:54:01;12.40;99.90
7000;DHT22;3540;53.242;10.408;2022-09-17T13:59:10;12.90;99.90
7000;DHT22;3540;53.242;10.408;2022-09-17T14:09:55;14.00;99.90
7000;DHT22;3540;53.242;10.408;2022-09-17T14:12:49;14.10;99.90
7000;DHT22;3540;53.242;10.408;2022-09-17T14:18:49;14.00;99.90
7000;DHT22;3540;53.242;10.408;2022-09-17T14:21:04;14.10;99.90
7000;DHT22;3540;53.242;10.408;2022-09-17T14:23:34;14.20;99.90
7000;DHT22;3540;53.242;10.408;2022-09-17T14:26:11;14.50;99.90
7000;DHT22;3540;53.242;10.408;2022-09-17T14:29:15;14.80;99.90
7000;DHT22;3540;53.242;10.408;2022-09-17T14:31:37;14.50;99.90
7000;DHT22;3540;53.242;10.408;2022-09-17T14:34:05;14.50;99.90
7000;DHT22;3540;53.242;10.408;2022-09-17T14:36:35;14.20;99.90
7000;DHT22;3540;53.242;10.408;2022-09-17T14:39:04;14.00;99.90
7000;DHT22;3540;53.242;10.408;2022-09-17T14:41:35;13.80;99.90
7000;DHT22;3540;53.242;10.408;2022-09-17T14:44:08;13.60;99.90
7000;DHT22;3540;53.242;10.408;2022-09-17T14:46:43;13.10;99.90
7000;DHT22;3540;53.242;10.408;2022-09-17T14:49:14;12.90;99.90
7000;DHT22;3540;53.242;10.408;2022-09-17T14:51:43;12.90;99.90
7000;DHT22;3540;53.242;10.408;2022-09-17T14:54:21;13.00;99.90
7000;DHT22;3540;53.242;10.408;2022-09-17T14:56:48;13.10;99.90
7000;DHT22;3540;53.242;10.408;2022-09-17T15:02:33;13.20;99.90
7000;DHT22;3540;53.242;10.408;2022-09-17T15:05:00;13.30;99.90
7000;DHT22;3540;53.242;10.408;2022-09-17T15:07:27;13.40;99.90
7000;DHT22;3540;53.242;10.408;2022-09-17T15:09:52;13.40;99.90
7000;DHT22;3540;53.242;10.408;2022-09-17T15:12:25;13.30;99.90
7000;DHT22;3540;53.242;10.408;2022-09-17T15:14:54;13.20;99.90
7000;DHT22;3540;53.242;10.408;2022-09-17T15:17:21;13.00;99.90
7000;DHT22;3540;53.242;10.408;2022-09-17T15:19:50;13.00;99.90
7000;DHT22;3540;53.242;10.408;2022-09-17T15:22:21;13.00;99.90
7000;DHT22;3540;53.242;10.408;2022-09-17T15:30:08;13.00;99.90
7000;DHT22;3540;53.242;10.408;2022-09-17T15:32:34;12.90;99.90
7000;DHT22;3540;53.242;10.408;2022-09-17T15:35:17;12.90;99.90
7000;DHT22;3540;53.242;10.408;2022-09-17T15:37:52;12.70;99.90
7000;DHT22;3540;53.242;10.408;2022-09-17T15:40:34;12.70;99.90
7000;DHT22;3540;53.242;10.408;2022-09-17T15:43:17;12.60;99.90
7000;DHT22;3540;53.242;10.408;2022-09-17T15:45:46;12.60;99.90
7000;DHT22;3540;53.242;10.408;2022-09-17T15:50:56;12.30;99.90
7000;DHT22;3540;53.242;10.408;2022-09-17T15:53:28;12.00;99.90
7000;DHT22;3540;53.242;10.408;2022-09-17T16:08:59;11.00;99.90
7000;DHT22;3540;53.242;10.408;2022-09-17T16:11:28;11.00;99.90
7000;DHT22;3540;53.242;10.408;2022-09-17T16:13:55;10.90;99.90
7000;DHT22;3540;53.242;10.408;2022-09-17T16:16:29;10.90;99.90
7000;DHT22;3540;53.242;10.408;2022-09-17T16:18:57;11.00;99.90
7000;DHT22;3540;53.242;10.408;2022-09-17T16:21:22;10.90;99.90
7000;DHT22;3540;53.242;10.408;2022-09-17T16:23:48;10.90;99.90
7000;DHT22;3540;53.242;10.408;2022-09-17T16:26:19;10.90;99.90
7000;DHT22;3540;53.242;10.408;2022-09-17T16:28:46;10.80;99.90
7000;DHT22;3540;53.242;10.408;2022-09-17T16:31:13;10.90;99.90
7000;DHT22;3540;53.242;10.408;2022-09-17T16:33:39;10.90;99.90
7000;DHT22;3540;53.242;10.408;2022-09-17T16:36:05;10.90;99.90
7000;DHT22;3540;53.242;10.408;2022-09-17T16:38:31;10.90;99.90
7000;DHT22;3540;53.242;10.408;2022-09-17T16:40:57;10.90;99.90
7000;DHT22;3540;53.242;10.408;2022-09-17T16:43:22;10.90;99.90
7000;DHT22;3540;53.242;10.408;2022-09-17T16:48:23;10.90;99.90
7000;DHT22;3540;53.242;10.408;2022-09-17T16:50:49;10.90;99.90
7000;DHT22;3540;53.242;10.408;2022-09-17T16:53:15;10.90;99.90
7000;DHT22;3540;53.242;10.408;2022-09-17T16:55:40;10.90;99.90
7000;DHT22;3540;53.242;10.408;2022-09-17T16:58:06;10.90;99.90
7000;DHT22;3540;53.242;10.408;2022-09-17T17:00:32;10.90;99.90
7000;DHT22;3540;53.242;10.408;2022-09-17T17:02:57;10.90;99.90
7000;DHT22;3540;53.242;10.408;2022-09-17T17:05:24;11.00;99.90
7000;DHT22;3540;53.242;10.408;2022-09-17T17:07:50;10.90;99.90
7000;DHT22;3540;53.242;10.408;2022-09-17T17:10:17;10.90;99.90
7000;DHT22;3540;53.242;10.408;2022-09-17T17:12:42;10.90;99.90
7000;DHT22;3540;53.242;10.408;2022-09-17T17:15:08;10.90;99.90
7000;DHT22;3540;53.242;10.408;2022-09-17T17:17:34;10.90;99.90
7000;DHT22;3540;53.242;10.408;2022-09-17T17:20:02;10.90;99.90
7000;DHT22;3540;53.242;10.408;2022-09-17T17:22:31;10.90;99.90
7000;DHT22;3540;53.242;10.408;2022-09-17T17:24:57;10.90;99.90
7000;DHT22;3540;53.242;10.408;2022-09-17T17:27:22;10.90;99.90
7000;DHT22;3540;53.242;10.408;2022-09-17T17:29:48;10.90;99.90
7000;DHT22;3540;53.242;10.408;2022-09-17T17:32:14;10.90;99.90
7000;DHT22;3540;53.242;10.408;2022-09-17T17:34:39;10.90;99.90
7000;DHT22;3540;53.242;10.408;2022-09-17T17:37:05;10.90;99.90
7000;DHT22;3540;53.242;10.408;2022-09-17T17:39:31;10.90;99.90
7000;DHT22;3540;53.242;10.408;2022-09-17T17:41:56;10.90;99.90
7000;DHT22;3540;53.242;10.408;2022-09-17T17:44:22;10.90;99.90
7000;DHT22;3540;53.242;10.408;2022-09-17T17:46:47;10.90;99.90
7000;DHT22;3540;53.242;10.408;2022-09-17T17:49:13;10.90;99.90
7000;DHT22;3540;53.242;10.408;2022-09-17T17:51:39;10.90;99.90
7000;DHT22;3540;53.242;10.408;2022-09-17T17:54:04;10.90;99.90
7000;DHT22;3540;53.242;10.408;2022-09-17T17:56:30;10.90;99.90
7000;DHT22;3540;53.242;10.408;2022-09-17T17:58:56;11.00;99.90
7000;DHT22;3540;53.242;10.408;2022-09-17T18:01:27;10.90;99.90
7000;DHT22;3540;53.242;10.408;2022-09-17T18:03:57;10.90;99.90
7000;DHT22;3540;53.242;10.408;2022-09-17T18:06:24;10.90;99.90
7000;DHT22;3540;53.242;10.408;2022-09-17T18:08:49;10.90;99.90
7000;DHT22;3540;53.242;10.408;2022-09-17T18:11:15;10.90;99.90
7000;DHT22;3540;53.242;10.408;2022-09-17T18:13:41;11.00;99.90
7000;DHT22;3540;53.242;10.408;2022-09-17T18:16:07;11.00;99.90
7000;DHT22;3540;53.242;10.408;2022-09-17T18:18:37;11.00;99.90
7000;DHT22;3540;53.242;10.408;2022-09-17T18:21:05;11.00;99.90
7000;DHT22;3540;53.242;10.408;2022-09-17T18:23:33;11.00;99.90
7000;DHT22;3540;53.242;10.408;2022-09-17T18:26:00;11.00;99.90
7000;DHT22;3540;53.242;10.408;2022-09-17T18:28:28;11.00;99.90
7000;DHT22;3540;53.242;10.408;2022-09-17T18:30:55;11.00;99.90
7000;DHT22;3540;53.242;10.408;2022-09-17T18:33:25;11.00;99.90
7000;DHT22;3540;53.242;10.408;2022-09-17T18:35:52;11.00;99.90
7000;DHT22;3540;53.242;10.408;2022-09-17T18:38:21;11.00;99.90
7000;DHT22;3540;53.242;10.408;2022-09-17T18:40:47;11.00;99.90
7000;DHT22;3540;53.242;10.408;2022-09-17T18:43:13;11.00;99.90
7000;DHT22;3540;53.242;10.408;2022-09-17T18:45:39;11.00;99.90
7000;DHT22;3540;53.242;10.408;2022-09-17T18:48:05;11.00;99.90
7000;DHT22;3540;53.242;10.408;2022-09-17T18:50:31;11.00;99.90
7000;DHT22;3540;53.242;10.408;2022-09-17T18:52:56;11.00;99.90
7000;DHT22;3540;53.242;10.408;2022-09-17T18:55:22;11.00;99.90
7000;DHT22;3540;53.242;10.408;2022-09-17T18:57:49;10.90;99.90
7000;DHT22;3540;53.242;10.408;2022-09-17T19:00:16;11.00;99.90
7000;DHT22;3540;53.242;10.408;2022-09-17T19:02:46;11.00;99.90
7000;DHT22;3540;53.242;10.408;2022-09-17T19:05:12;11.00;99.90
7000;DHT22;3540;53.242;10.408;2022-09-17T19:07:37;11.00;99.90
7000;DHT22;3540;53.242;10.408;2022-09-17T19:10:07;11.00;99.90
7000;DHT22;3540;53.242;10.408;2022-09-17T19:12:33;11.00;99.90
7000;DHT22;3540;53.242;10.408;2022-09-17T19:14:59;11.00;99.90
7000;DHT22;3540;53.242;10.408;2022-09-17T19:17:24;10.90;99.90
7000;DHT22;3540;53.242;10.408;2022-09-17T19:19:50;11.00;99.90
7000;DHT22;3540;53.242;10.408;2022-09-17T19:22:15;11.00;99.90
7000;DHT22;3540;53.242;10.408;2022-09-17T19:24:42;11.00;99.90
7000;DHT22;3540;53.242;10.408;2022-09-17T19:27:07;11.00;99.90
7000;DHT22;3540;53.242;10.408;2022-09-17T19:29:33;11.00;99.90
7000;DHT22;3540;53.242;10.408;2022-09-17T19:31:58;10.90;99.90
7000;DHT22;3540;53.242;10.408;2022-09-17T19:34:24;11.00;99.90
7000;DHT22;3540;53.242;10.408;2022-09-17T19:36:50;11.00;99.90